KSGU/SGU METAR and TAF weather

Enter ICAO airport designator
Station Type Date Time Source
KSGU METAR 2019/05/21 20:56 UTC NOAA

KSGU 212056Z AUTO 26011G16KT 10SM BKN090 18/M02 A2958 RMK AO2 PK WND 21028/1957 SLP997 T01831017 56020


Station Type Date Time Source
KSGU Decoded METAR 2019/05/21 20:56 UTC NOAA

St George, St George Municipal Airport, UT, United States (KSGU) 37-05N 113-36W
May 21, 2019 - 04:56 PM EDT / 2019.05.21 2056 UTC
Wind: from the W (260 degrees) at 13 MPH (11 KT) gusting to 18 MPH (16 KT):0
Visibility: 10 mile(s):0
Sky conditions: mostly cloudy
Temperature: 64.9 F (18.3 C)
Dew Point: 28.9 F (-1.7 C)
Relative Humidity: 25%
Pressure (altimeter): 29.58 in. Hg (1001 hPa)
Pressure tendency: 0.06 inches (2.0 hPa) lower than three hours ago
ob: KSGU 212056Z AUTO 26011G16KT 10SM BKN090 18/M02 A2958 RMK AO2 PK WND 21028/1957 SLP997 T01831017 56020
cycle: 21

Station Type Date Time Source
KSGU TAF 2019/05/21 20:12 UTC NOAA

TAF
AMD KSGU 212009Z 2120/2218 22012G22KT P6SM VCSH BKN080
FM220300 VRB04KT P6SM BKN080

Example: see airport list